Private Wetterstation Nrnberg - Katzwang
Wetterdaten: Dezember 2012
Datum Temp. A. Feuchte A. Luftdruck Regen Wind Richtung Taupunkt Windchill Windben
01.12.2012 -2,3 C 87 % 1011 hPa 0,0 l/m 2,8 km/h N -4,2 C -3,0 C 3,8 km/h
02.12.2012 -1,2 C 86 % 1009 hPa 0,5 l/m 3,9 km/h N -3,3 C -2,1 C 5,1 km/h
03.12.2012 0,5 C 85 % 1010 hPa 0,0 l/m 5,4 km/h N -1,7 C -0,9 C 6,4 km/h
04.12.2012 1,7 C 87 % 999 hPa 3,6 l/m 2,3 km/h N -0,3 C 1,2 C 3,5 km/h
05.12.2012 1,8 C 86 % 1000 hPa 0,5 l/m 2,1 km/h N -0,3 C 1,5 C 3,1 km/h
06.12.2012 -1,2 C 84 % 1009 hPa 0,0 l/m 3,4 km/h N -3,6 C -2,2 C 4,7 km/h
07.12.2012 -4,2 C 83 % 1007 hPa 0,0 l/m 6,6 km/h N-NO -6,7 C -6,7 C 8,5 km/h
08.12.2012 -5,0 C 81 % 1015 hPa 0,0 l/m 2,3 km/h N-NO -7,8 C -5,3 C 3,3 km/h
09.12.2012 -4,2 C 85 % 1016 hPa 0,0 l/m 4,3 km/h N -6,4 C -5,5 C 5,9 km/h
10.12.2012 1,2 C 85 % 1005 hPa 1,0 l/m 5,0 km/h N -1,0 C 0,0 C 6,6 km/h
11.12.2012 -1,8 C 83 % 1016 hPa 0,0 l/m 3,2 km/h N -4,3 C -2,5 C 4,2 km/h
12.12.2012 -4,3 C 81 % 1019 hPa 0,0 l/m 3,2 km/h N -7,1 C -5,1 C 4,2 km/h
13.12.2012 -6,7 C 82 % 1012 hPa 0,0 l/m 6,4 km/h N-NO -9,3 C -9,1 C 7,8 km/h
14.12.2012 -1,1 C 80 % 1005 hPa 0,0 l/m 9,7 km/h N-NO -4,1 C -4,5 C 11,8 km/h
15.12.2012 2,5 C 86 % 1003 hPa 8,3 l/m 7,2 km/h N-NO 0,4 C 0,6 C 8,3 km/h
16.12.2012 3,7 C 87 % 1007 hPa 0,5 l/m 4,0 km/h N-NO 1,8 C 3,1 C 5,0 km/h
17.12.2012 4,1 C 87 % 1005 hPa 0,0 l/m 3,3 km/h N-NO 2,1 C 3,6 C 4,3 km/h
18.12.2012 3,6 C 87 % 1011 hPa 0,0 l/m 1,1 km/h N 1,6 C 3,5 C 2,1 km/h
19.12.2012 2,2 C 87 % 1020 hPa 0,0 l/m 3,0 km/h N-NO 0,2 C 1,8 C 4,0 km/h
20.12.2012 0,8 C 85 % 1015 hPa 0,0 l/m 9,5 km/h N-NO -1,4 C -2,4 C 11,9 km/h
21.12.2012 1,7 C 87 % 1009 hPa 0,5 l/m 3,1 km/h N-NO -0,3 C 1,3 C 4,1 km/h
22.12.2012 4,3 C 87 % 1014 hPa 1,4 l/m 2,8 km/h N-NO 2,3 C 3,7 C 3,8 km/h
23.12.2012 8,8 C 85 % 1008 hPa 19,5 l/m 7,2 km/h N 6,5 C 7,3 C 8,4 km/h
24.12.2012 8,8 C 81 % 1008 hPa 0,0 l/m 5,0 km/h NO 5,7 C 8,0 C 6,0 km/h
25.12.2012 7,9 C 79 % 1005 hPa 0,5 l/m 6,7 km/h W-NW 4,3 C 6,6 C 8,2 km/h
26.12.2012 7,3 C 79 % 1010 hPa 0,5 l/m 8,4 km/h W-NW 3,8 C 5,2 C 11,9 km/h
27.12.2012 6,9 C 81 % 1006 hPa 3,1 l/m 8,0 km/h W-NW 4,0 C 4,9 C 10,7 km/h
28.12.2012 4,2 C 85 % 1021 hPa 2,1 l/m 2,8 km/h O-NO 1,8 C 3,8 C 3,9 km/h
29.12.2012 4,1 C 83 % 1019 hPa 0,0 l/m 7,6 km/h O-NO 1,5 C 2,2 C 8,7 km/h
30.12.2012 5,0 C 81 % 1017 hPa 0,5 l/m 5,3 km/h W-NW 1,9 C 4,0 C 6,8 km/h
31.12.2012 4,4 C 80 % 1017 hPa 0,0 l/m 6,3 km/h N-NO 1,2 C 2,9 C 7,4 km/h
Min-Datum 13.12.12 25.12.12 04.12.12 14 Tage 01.12.12 - 13.12.12 13.12.12 01.12.12
Min-Zeit 06:40 15:10 11:30 - 00:00 - 06:40 13:30 00:00
Minimum -10,7 C 61 % 996 hPa - 0,0 km/h - -12,7 C -19,6 C 1,0 km/h
Max-Datum 25.12.12 01.12.12 28.12.12 23.12.12 27.12.12 - 23.12.12 25.12.12 26.12.12
Max-Zeit 15:00 06:20 17:20 07:20 08:00 - 14:50 15:10 15:50
Maximum 13,2 C 88 % 1027 hPa 19,5 l/m 40,4 km/h
W-NW
- 9,0 C 13,2 C 59,8 km/h
W-NW
Durchschnitt 1,7 C 84 % 1011 hPa #42,7 l/m 4,9 km/h N-NO -0,7 C 0,5 C 6,3 km/h

Durchschnitt Minimum Temp.-0,7 C
Durchschnitt Maximum Temp.4,2 C